Tiempo atmosférico en la estación meteorológica de Les Planes d?Hostoles, Girona (337 m.)



Fecha
DESCASC
Temp. máxima en grados centígrados (hora)
DESCASC
Temp. mínima en grados centígrados (hora)
DESCASC
Temp. media en grados centígrados
DESCASC
Racha de viento máxima en m/sg (hora)
DESCASC
Velocidad máxima media en intervalos de 10 minutos(hora)
DESCASC
Precipitaciones diarias en mm
DESCASC
Precipitaciones de 00:00 a 06:00 en mm
DESCASC
Precipitaciones de 06:00 a 12:00 en mm
DESCASC
Precipitaciones de 12:00 a 18:00 en mm
DESCASC
Precipitaciones de 18:00 a 24:00 en mm
DESCASC

Gráficas

Temp. máximas Temp. mínimas Temp. medias Precipitaciones Rachas de viento máximas Velocidades máximas media en intervalos de 10 minutos

Datos horarios

Fecha y hora oficial Temperatura (ºC) Velocidad del viento (km/h) Dirección del viento Racha (km/h) Dirección de racha Precipitación (mm) Presión (hPa) Tendencia (hPa) Humedad (%)
2019-11-12 23:00:00 1.9 0 Calma 4 Este 0 -- -- 97
2019-11-12 22:00:00 2.8 0 Calma 4 Este 0 -- -- 96
2019-11-12 21:00:00 3.9 2 Este 4 Este 0 -- -- 96
2019-11-12 20:00:00 4.4 0 Calma 4 Este 0 -- -- 95
2019-11-12 19:00:00 5.3 2 Nordeste 5 Este 0 -- -- 93
2019-11-12 18:00:00 6.9 0 Calma 4 Este 0 -- -- 88
2019-11-12 17:00:00 9.8 0 Calma 9 Oeste 0 -- -- 79
2019-11-12 16:00:00 13.6 4 Oeste 10 Sudoeste 0 -- -- 64
2019-11-12 15:00:00 14.8 4 Sudoeste 11 Sudoeste 0 -- -- 55
2019-11-12 14:00:00 14.4 4 Oeste 16 Sur 0 -- -- 54
2019-11-12 13:00:00 13 4 Sudoeste 11 Este 0 -- -- 53
2019-11-12 12:00:00 11.4 5 Sudoeste 13 Sudeste 0 -- -- 59
2019-11-12 11:00:00 8.7 3 Oeste 8 Oeste 0 -- -- 73
2019-11-12 10:00:00 4.2 0 Calma 4 Este 0 -- -- 100
2019-11-12 09:00:00 2.1 2 Este 3 Este 0 -- -- 100
2019-11-12 08:00:00 0.9 0 Calma 6 Nordeste 0 -- -- 100
2019-11-12 07:00:00 0.5 0 Calma 6 Nordeste 0 -- -- 99
2019-11-12 06:00:00 0.1 2 Nordeste 5 Este 0 -- -- 100
2019-11-12 05:00:00 0 2 Nordeste 4 Nordeste 0 -- -- 99
2019-11-12 04:00:00 0 3 Nordeste 5 Este 0 -- -- 98
2019-11-12 03:00:00 0.5 0 Calma 5 Este 0 -- -- 98
2019-11-12 02:00:00 0.8 2 Nordeste 4 Este 0 -- -- 98
2019-11-12 01:00:00 1.1 3 Nordeste 6 Nordeste 0 -- -- 98
2019-11-12 00:00:00 1.1 0 Calma 6 Este 0 -- -- 97
2019-11-11 23:00:00 1.4 0 Calma 5 Nordeste 0 -- -- 96
2019-11-11 22:00:00 2.1 0 Calma 5 Este 0 -- -- 95
2019-11-11 21:00:00 3.3 2 Este 4 Este 0 -- -- 93
2019-11-11 20:00:00 5 2 Nordeste 4 Nordeste 0 -- -- 91
2019-11-11 19:00:00 6.7 0 Calma 4 Este 0 -- -- 88
2019-11-11 18:00:00 7.5 0 Calma 2 Sur 0 -- -- 83
2019-11-11 17:00:00 9.9 0 Calma 4 Oeste 0 -- -- 74
2019-11-11 16:00:00 13.6 3 Oeste 8 Sudoeste 0 -- -- 52
2019-11-11 15:00:00 16.6 4 Oeste 8 Sudoeste 0 -- -- 37
2019-11-11 14:00:00 16 2 Sur 6 Sudeste 0 -- -- 35
2019-11-11 13:00:00 13.7 2 Sudoeste 9 Oeste 0 -- -- 43
2019-11-11 12:00:00 9.4 0 Calma 2 Sudeste 0 -- -- 87
2019-11-11 11:00:00 6.5 0 Calma 4 Nordeste 0 -- -- 100
2019-11-11 10:00:00 3.4 2 Nordeste 4 Este 0 -- -- 100
2019-11-11 09:00:00 0.8 0 Calma 5 Nordeste 0 -- -- 100
2019-11-11 08:00:00 -0.1 3 Nordeste 6 Este 0 -- -- 100
2019-11-11 07:00:00 -0.9 2 Nordeste 5 Nordeste 0 -- -- 100
2019-11-11 06:00:00 -1.4 0 Calma 7 Este 0 -- -- 100
2019-11-11 05:00:00 -1.7 0 Calma 5 Este 0 -- -- 99
2019-11-11 04:00:00 -1.6 2 Nordeste 5 Nordeste 0 -- -- 100
2019-11-11 03:00:00 -1.3 3 Nordeste 6 Este 0 -- -- 100
2019-11-11 02:00:00 -1.3 2 Este 4 Este 0 -- -- 99
2019-11-11 01:00:00 -0.9 2 Este 4 Este 0 -- -- 99
2019-11-11 00:00:00 -0.4 2 Nordeste 6 Este 0 -- -- 98
2019-11-10 23:00:00 0.1 0 Calma 4 Nordeste 0 -- -- 98
2019-11-10 22:00:00 0.9 2 Este 4 Nordeste 0 -- -- 98
2019-11-10 21:00:00 1.9 2 Nordeste 4 Este 0 -- -- 97
2019-11-10 20:00:00 3.1 3 Nordeste 4 Nordeste 0 -- -- 96
2019-11-10 19:00:00 4.4 2 Este 4 Nordeste 0 -- -- 94
2019-11-10 18:00:00 6 0 Calma 4 Nordeste 0 -- -- 90
2019-11-10 17:00:00 8.6 0 Calma 5 Oeste 0 -- -- 85
2019-11-10 16:00:00 11.9 4 Oeste 8 Oeste 0 -- -- 69
2019-11-10 15:00:00 10.8 0 Calma 10 Oeste 0 -- -- 75
2019-11-10 14:00:00 11.9 3 Sur 10 Oeste 0 -- -- 69
2019-11-10 13:00:00 11.6 3 Sur 7 Oeste 0 -- -- 69
2019-11-10 12:00:00 10.3 0 Calma 4 Sudeste 0 -- -- 84
2019-11-10 11:00:00 8.8 2 Oeste 6 Oeste 0 -- -- 99
2019-11-10 10:00:00 7.3 2 Este 4 Este 0 -- -- 100
2019-11-10 09:00:00 6.1 0 Calma 4 Sudoeste 0 -- -- 100
2019-11-10 08:00:00 5.9 0 Calma 5 Oeste 0 -- -- 100
2019-11-10 07:00:00 6.4 2 Este 4 Este 0 -- -- 99
2019-11-10 06:00:00 6.9 3 Este 5 Este 0.2 -- -- 99
2019-11-10 05:00:00 6.9 0 Calma 6 Noroeste 0 -- -- 99
2019-11-10 04:00:00 7 2 Nordeste 10 Noroeste 0 -- -- 98
2019-11-10 03:00:00 7.1 3 Este 9 Este 1 -- -- 98
2019-11-10 02:00:00 6.8 3 Nordeste 4 Nordeste 0 -- -- 96
2019-11-10 01:00:00 6.5 0 Calma 4 Este 0 -- -- 95
2019-11-10 00:00:00 6.8 0 Calma 3 Este 0 -- -- 95
2019-11-09 23:00:00 7.3 2 Este 6 Sudoeste 0 -- -- 94
2019-11-09 22:00:00 7.4 0 Calma 13 Oeste 0 -- -- 92
2019-11-09 21:00:00 6.8 2 Nordeste 6 Este 0 -- -- 92
2019-11-09 20:00:00 7.2 3 Este 6 Oeste 0 -- -- 90
2019-11-09 19:00:00 7.8 3 Sudeste 6 Sudoeste 0 -- -- 87
2019-11-09 18:00:00 8.8 2 Sudeste 9 Norte 0 -- -- 82
2019-11-09 17:00:00 10.2 0 Calma 5 Noroeste 0 -- -- 79
2019-11-09 16:00:00 11.5 3 Sudoeste 11 Sur 0 -- -- 71
2019-11-09 15:00:00 13.1 4 Sur 15 Sudeste 0 -- -- 57
2019-11-09 14:00:00 14.2 4 Sudeste 18 Noroeste 0 -- -- 53
2019-11-09 13:00:00 13.3 4 Sudoeste 13 Sudoeste 0 -- -- 53
2019-11-09 12:00:00 11.3 3 Sur 9 Oeste 0 -- -- 63
2019-11-09 11:00:00 6.6 2 Oeste 5 Oeste 0 -- -- 100
2019-11-09 10:00:00 3.2 2 Nordeste 4 Sudeste 0 -- -- 100
2019-11-09 09:00:00 -0.1 2 Nordeste 7 Nordeste 0 -- -- 100
2019-11-09 08:00:00 -1.4 3 Nordeste 6 Este 0 -- -- 100
2019-11-09 07:00:00 -1.3 3 Nordeste 6 Este 0 -- -- 100
2019-11-09 06:00:00 -1.2 3 Nordeste 5 Este 0 -- -- 100
2019-11-09 05:00:00 -0.8 2 Este 8 Nordeste 0 -- -- 100
2019-11-09 04:00:00 -1 0 Calma 4 Este 0 -- -- 99
2019-11-09 03:00:00 -0.8 0 Calma 4 Este 0 -- -- 99
2019-11-09 02:00:00 -0.1 2 Este 5 Nordeste 0 -- -- 99
2019-11-09 01:00:00 0.6 3 Nordeste 4 Nordeste 0 -- -- 98
2019-11-09 00:00:00 1 0 Calma 5 Este 0 -- -- 97
2019-11-08 23:00:00 1.8 0 Calma 5 Noroeste 0 -- -- 97
2019-11-08 22:00:00 3 3 Este 8 Oeste 0 -- -- 96
2019-11-08 21:00:00 4 0 Calma 5 Este 0 -- -- 94
2019-11-08 20:00:00 5.7 2 Este 7 Este 0 -- -- 94
2019-11-08 19:00:00 7.1 2 Nordeste 9 Norte 0 -- -- 88
2019-11-08 18:00:00 8.6 3 Sur 7 Oeste 0 -- -- 80
2019-11-08 17:00:00 9.6 0 Calma 13 Este 0 -- -- 77
2019-11-08 16:00:00 10.9 4 Norte 24 Sudoeste 0 -- -- 59
2019-11-08 15:00:00 11.3 15 Oeste 28 Oeste 0 -- -- 58
2019-11-08 14:00:00 12.9 9 Oeste 21 Oeste 0 -- -- 58
2019-11-08 13:00:00 12 3 Sur 22 Oeste 0 -- -- 62
2019-11-08 12:00:00 10.8 4 Sur 12 Este 0 -- -- 67
2019-11-08 11:00:00 8.4 3 Sudeste 8 Sur 0 -- -- 98
2019-11-08 10:00:00 6.2 0 Calma 4 Sudoeste 0 -- -- 100
2019-11-08 09:00:00 3.6 0 Calma 4 Nordeste 0 -- -- 100
2019-11-08 08:00:00 3.5 0 Calma 5 Oeste 0 -- -- 100
2019-11-08 07:00:00 4.2 0 Calma 3 Este 0 -- -- 100
2019-11-08 06:00:00 4.2 0 Calma 4 Noroeste 0 -- -- 100
2019-11-08 05:00:00 3.4 0 Calma 4 Este 0 -- -- 100
2019-11-08 04:00:00 3.6 0 Calma 5 Este 0 -- -- 100
2019-11-08 03:00:00 4.3 3 Nordeste 5 Este 0 -- -- 99
2019-11-08 02:00:00 4.9 0 Calma 5 Este 0 -- -- 99
2019-11-08 01:00:00 5.6 3 Este 5 Este 0 -- -- 99
2019-11-08 00:00:00 5.2 0 Calma 5 Este 0 -- -- 98
2019-11-07 23:00:00 6.2 0 Calma 3 Sudoeste 0 -- -- 96
2019-11-07 22:00:00 6.9 0 Calma 4 Oeste 0 -- -- 96
2019-11-07 21:00:00 7.2 3 Este 7 Este 0 -- -- 95
2019-11-07 20:00:00 8.4 0 Calma 10 Sudeste 0 -- -- 96
2019-11-07 19:00:00 9.3 3 Sur 13 Sudeste 0 -- -- 97
2019-11-07 18:00:00 9.7 3 Sudeste 8 Sur 0 -- -- 98
2019-11-07 17:00:00 10.4 0 Calma 4 Este 0 -- -- 97
2019-11-07 16:00:00 10.5 2 Sudeste 5 Noroeste 0 -- -- 96
2019-11-07 15:00:00 10.6 2 Sur 7 Sudoeste 0.6 -- -- 94
2019-11-07 14:00:00 11.8 2 Sur 8 Sudoeste 0 -- -- 85
2019-11-07 13:00:00 12.2 3 Sudoeste 12 Oeste 0 -- -- 77
2019-11-07 12:00:00 12.4 2 Oeste 11 Nordeste 0 -- -- 73
2019-11-07 11:00:00 12.3 5 Sudoeste 21 Oeste 0 -- -- 71
2019-11-07 10:00:00 7.8 0 Calma 6 Oeste 0 -- -- 99
2019-11-07 09:00:00 5.2 2 Este 5 Este 0 -- -- 97
2019-11-07 08:00:00 5.1 2 Nordeste 6 Este 0 -- -- 94
2019-11-07 07:00:00 7.1 0 Calma 18 Noroeste 0 -- -- 87
2019-11-07 06:00:00 8.5 3 Nordeste 22 Nordeste 0 -- -- 87
2019-11-07 05:00:00 6.9 5 Sudeste 24 Oeste 0 -- -- 99
2019-11-07 04:00:00 4.8 5 Sudeste 13 Noroeste 0 -- -- 100
2019-11-07 03:00:00 3.5 3 Este 12 Oeste 0 -- -- 100
2019-11-07 02:00:00 3.4 2 Nordeste 5 Este 0 -- -- 99
2019-11-07 01:00:00 3.8 2 Nordeste 5 Este 0 -- -- 98
2019-11-07 00:00:00 4.6 2 Nordeste 4 Nordeste 0 -- -- 97
2019-11-06 23:00:00 5.5 0 Calma 4 Este 0 -- -- 97
2019-11-06 22:00:00 6.7 0 Calma 4 Este 0 -- -- 95
2019-11-06 21:00:00 8.4 0 Calma 3 Este 0 -- -- 93
2019-11-06 20:00:00 9.1 0 Calma 3 Nordeste 0 -- -- 93
2019-11-06 19:00:00 9.5 0 Calma 3 Este 0 -- -- 91
2019-11-06 18:00:00 10.1 0 Calma 5 Oeste 0 -- -- 89
2019-11-06 17:00:00 11.4 0 Calma 6 Oeste 0 -- -- 81
2019-11-06 16:00:00 13.7 2 Sudoeste 14 Oeste 0 -- -- 69
2019-11-06 15:00:00 16 3 Sudeste 9 Oeste 0 -- -- 57
2019-11-06 14:00:00 15.8 3 Sudeste 16 Oeste 0 -- -- 55
2019-11-06 13:00:00 14.6 3 Oeste 17 Sudoeste 0 -- -- 59
2019-11-06 12:00:00 13 2 Sur 7 Sudeste 0 -- -- 66
2019-11-06 11:00:00 9.6 0 Calma 6 Este 0 -- -- 100
2019-11-06 10:00:00 5.9 0 Calma 3 Nordeste 0 -- -- 100
2019-11-06 09:00:00 2.7 0 Calma 5 Este 0 -- -- 100
2019-11-06 08:00:00 1.5 4 Este 7 Este 0 -- -- 100
2019-11-06 07:00:00 1.5 3 Nordeste 5 Este 0 -- -- 100
2019-11-06 06:00:00 1.8 2 Nordeste 4 Nordeste 0 -- -- 100
2019-11-06 05:00:00 1.8 0 Calma 4 Nordeste 0 -- -- 99
2019-11-06 04:00:00 2.4 2 Este 5 Nordeste 0 -- -- 99
2019-11-06 03:00:00 2.4 0 Calma 6 Este 0 -- -- 98
2019-11-06 02:00:00 3 0 Calma 6 Este 0 -- -- 98
2019-11-06 01:00:00 3.6 4 Este 5 Este 0 -- -- 98
2019-11-06 00:00:00 4.2 3 Este 6 Este 0 -- -- 97
2019-11-05 23:00:00 4.9 2 Nordeste 5 Nordeste 0 -- -- 95
2019-11-05 22:00:00 5.7 2 Sudeste 7 Noroeste 0 -- -- 94
2019-11-05 21:00:00 6.7 0 Calma 8 Sudoeste 0 -- -- 92
2019-11-05 20:00:00 8.4 2 Sudeste 9 Sudeste 0 -- -- 85
2019-11-05 19:00:00 10.6 0 Calma 15 Nordeste 0 -- -- 77
2019-11-05 18:00:00 13.1 9 Noroeste 36 Oeste 0 -- -- 56
2019-11-05 17:00:00 13.9 22 Oeste 61 Sudoeste 0 -- -- 53
2019-11-05 16:00:00 15 23 Oeste 46 Sudoeste 0 -- -- 51
2019-11-05 15:00:00 15.7 19 Sudoeste 49 Sudoeste 0 -- -- 51
2019-11-05 14:00:00 15.9 12 Oeste 31 Oeste 0 -- -- 53
2019-11-05 13:00:00 15 4 Sudoeste 14 Oeste 0 -- -- 61
2019-11-05 12:00:00 13.4 8 Noroeste 16 Oeste 0 -- -- 63
2019-11-05 11:00:00 11.4 5 Nordeste 13 Nordeste 0 -- -- 87
2019-11-05 10:00:00 11 0 Calma 6 Sudoeste 0 -- -- 99
2019-11-05 09:00:00 9.9 2 Nordeste 5 Noroeste 0 -- -- 100
2019-11-05 08:00:00 9.3 0 Calma 7 Noroeste 0.2 -- -- 99
2019-11-05 07:00:00 9.8 3 Nordeste 7 Noroeste 0 -- -- 99
2019-11-05 06:00:00 10 3 Sudeste 9 Nordeste 0 -- -- 98
2019-11-05 05:00:00 10.1 2 Sudeste 9 Nordeste 0 -- -- 98
2019-11-05 04:00:00 10.5 2 Sur 10 Este 0 -- -- 98
2019-11-05 03:00:00 11 3 Sudeste 14 Sudeste 1 -- -- 97
2019-11-05 02:00:00 11.8 3 Nordeste 12 Sudeste 1.2 -- -- 97
2019-11-05 01:00:00 12.2 5 Noroeste 12 Oeste 0 -- -- 97
2019-11-05 00:00:00 12.4 3 Este 23 Sudoeste 0.2 -- -- 97
2019-11-04 23:00:00 12.5 4 Oeste 13 Oeste 0 -- -- 97
2019-11-04 22:00:00 12.4 2 Este 4 Este 0.4 -- -- 95
2019-11-04 21:00:00 12.5 0 Calma 6 Noroeste 0 -- -- 92
2019-11-04 20:00:00 12.4 2 Nordeste 6 Noroeste 0 -- -- 91
2019-11-04 19:00:00 13 2 Este 7 Noroeste 0 -- -- 86
2019-11-04 18:00:00 14.7 3 Sur 9 Este 0 -- -- 80
2019-11-04 17:00:00 17.1 4 Este 24 Nordeste 0 -- -- 66
2019-11-04 16:00:00 20.4 4 Este 17 Este 0 -- -- 55
2019-11-04 15:00:00 20.6 9 Nordeste 28 Nordeste 0 -- -- 51
2019-11-04 14:00:00 20.4 9 Nordeste 22 Noroeste 0 -- -- 51
2019-11-04 13:00:00 18.7 4 Este 26 Noroeste 0 -- -- 58
2019-11-04 12:00:00 17.9 14 Oeste 40 Oeste 0 -- -- 60
2019-11-04 11:00:00 15.7 21 Oeste 47 Oeste 0 -- -- 67
2019-11-04 10:00:00 14.7 25 Oeste 60 Oeste 0 -- -- 67
2019-11-04 09:00:00 14 18 Oeste 54 Sudoeste 0 -- -- 68
2019-11-04 08:00:00 13.8 17 Noroeste 43 Noroeste 0 -- -- 68
2019-11-04 07:00:00 12.6 14 Noroeste 43 Noroeste 0 -- -- 69
2019-11-04 06:00:00 8.9 9 Norte 25 Noroeste 0 -- -- 100
2019-11-04 05:00:00 5.4 3 Sudeste 13 Oeste 0 -- -- 100
2019-11-04 04:00:00 5.2 3 Nordeste 8 Este 0 -- -- 100
2019-11-04 03:00:00 5.4 2 Este 6 Este 0 -- -- 100
2019-11-04 02:00:00 5.6 2 Nordeste 6 Sudoeste 0 -- -- 99
2019-11-04 01:00:00 5.9 3 Nordeste 7 Noroeste 0 -- -- 99
2019-11-04 00:00:00 6.3 3 Este 8 Nordeste 0 -- -- 99
2019-11-03 23:00:00 7 0 Calma 5 Este 0 -- -- 98
2019-11-03 22:00:00 7.6 0 Calma 6 Este 0 -- -- 97
2019-11-03 21:00:00 8.2 3 Este 7 Nordeste 0 -- -- 96
2019-11-03 20:00:00 9 2 Este 7 Este 0 -- -- 94
2019-11-03 19:00:00 10.3 2 Este 4 Oeste 0 -- -- 91
2019-11-03 18:00:00 12.5 2 Norte 7 Sudoeste 0 -- -- 83
2019-11-03 17:00:00 15.6 5 Este 30 Sudoeste 0 -- -- 66
2019-11-03 16:00:00 18 15 Oeste 33 Oeste 0 -- -- 51
2019-11-03 15:00:00 18.2 18 Oeste 36 Oeste 0 -- -- 54
2019-11-03 14:00:00 17.8 5 Sur 19 Oeste 0 -- -- 58
2019-11-03 13:00:00 14.4 3 Este 8 Noroeste 0 -- -- 76
2019-11-03 12:00:00 11.8 3 Sur 24 Noroeste 0.2 -- -- 90
2019-11-03 11:00:00 14.1 14 Noroeste 49 Sudoeste 0 -- -- 76
2019-11-03 10:00:00 14.6 15 Oeste 35 Sudoeste 0.2 -- -- 79
2019-11-03 09:00:00 15.2 6 Nordeste 18 Oeste 0 -- -- 71
2019-11-03 08:00:00 13.5 4 Nordeste 23 Nordeste 0 -- -- 81
2019-11-03 07:00:00 14.6 6 Nordeste 25 Norte 0 -- -- 73
2019-11-03 06:00:00 14.3 5 Nordeste 21 Norte 0 -- -- 80
2019-11-03 05:00:00 15 6 Este 37 Norte 0 -- -- 78
2019-11-03 04:00:00 14.3 6 Sudeste 26 Este 0 -- -- 89
2019-11-03 03:00:00 14 6 Nordeste 22 Este 0.2 -- -- 93
2019-11-03 02:00:00 13.8 4 Este 10 Este 1.8 -- -- 95
2019-11-03 01:00:00 13.4 3 Norte 9 Noroeste 0 -- -- 93
2019-11-03 00:00:00 14.4 4 Nordeste 14 Este 0 -- -- 87
2019-11-02 23:00:00 16 3 Este 14 Norte 0 -- -- 80
2019-11-02 22:00:00 18 4 Oeste 30 Sudoeste 0 -- -- 69
2019-11-02 21:00:00 18.9 13 Sudoeste 34 Sudoeste 0 -- -- 66
2019-11-02 20:00:00 18.3 12 Oeste 27 Sudoeste 0 -- -- 69
2019-11-02 19:00:00 17.4 4 Norte 23 Noroeste 0 -- -- 77
2019-11-02 18:00:00 18.9 5 Sudeste 33 Noroeste 0 -- -- 67
2019-11-02 17:00:00 19.5 4 Noroeste 30 Oeste 0 -- -- 69
2019-11-02 16:00:00 20.5 13 Oeste 31 Sudoeste 0 -- -- 64
2019-11-02 15:00:00 21.4 12 Oeste 33 Sudoeste 0 -- -- 60
2019-11-02 14:00:00 20.8 7 Norte 41 Noroeste 0 -- -- 63
2019-11-02 13:00:00 19.8 6 Noroeste 19 Oeste 0 -- -- 68
2019-11-02 12:00:00 18.5 4 Este 20 Noroeste 0.2 -- -- 77
2019-11-02 11:00:00 15.7 4 Oeste 8 Noroeste 0 -- -- 100
2019-11-02 10:00:00 12.9 0 Calma 6 Noroeste 0 -- -- 100
2019-11-02 09:00:00 9.8 2 Nordeste 4 Este 0 -- -- 100
2019-11-02 08:00:00 8.7 2 Nordeste 7 Nordeste 0 -- -- 100
2019-11-02 07:00:00 9.1 0 Calma 4 Nordeste 0 -- -- 100
2019-11-02 06:00:00 10.2 2 Nordeste 8 Noroeste 0 -- -- 99
2019-11-02 05:00:00 11.4 0 Calma 7 Noroeste 0 -- -- 99
2019-11-02 04:00:00 12.3 2 Norte 12 Noroeste 0 -- -- 100
2019-11-02 03:00:00 12.6 2 Norte 8 Noroeste 0 -- -- 100
2019-11-02 02:00:00 13.3 0 Calma 3 Este 1.8 -- -- 100
2019-11-02 01:00:00 13.7 0 Calma 13 Noroeste 0.2 -- -- 100
2019-11-02 00:00:00 13.1 0 Calma 4 Este 0 -- -- 100
2019-11-01 23:00:00 13 0 Calma 5 Sudoeste 0 -- -- 99
2019-11-01 22:00:00 13.1 2 Nordeste 4 Este 0 -- -- 99
2019-11-01 21:00:00 13.2 0 Calma 4 Sudoeste 0 -- -- 98
2019-11-01 20:00:00 13.3 0 Calma 3 Este 0 -- -- 97
2019-11-01 19:00:00 14.4 0 Calma 5 Oeste 0 -- -- 94
2019-11-01 18:00:00 16.1 0 Calma 5 Sur 0 -- -- 91
2019-11-01 17:00:00 17.3 0 Calma 6 Oeste 0 -- -- 89
2019-11-01 16:00:00 18.2 0 Calma 6 Este 0 -- -- 83
2019-11-01 15:00:00 19 0 Calma 8 Sudeste 0 -- -- 78
2019-11-01 14:00:00 18.7 2 Sudeste 8 Sudeste 0 -- -- 77
2019-11-01 13:00:00 18.7 3 Sudeste 8 Sudoeste 0 -- -- 72
2019-11-01 12:00:00 17.2 2 Sudoeste 6 Oeste 0 -- -- 88
2019-11-01 11:00:00 14.9 2 Nordeste 4 Este 0 -- -- 100
2019-11-01 10:00:00 12.5 0 Calma 3 Este 0 -- -- 100
2019-11-01 09:00:00 10.9 0 Calma 4 Este 0 -- -- 100
2019-11-01 08:00:00 9.6 2 Nordeste 4 Este 0 -- -- 100
2019-11-01 07:00:00 9.8 0 Calma 3 Este 0 -- -- 100
2019-11-01 06:00:00 8.9 0 Calma 4 Este 0 -- -- 100
2019-11-01 05:00:00 8.6 0 Calma 4 Este 0 -- -- 100
2019-11-01 04:00:00 9.5 2 Este 5 Este 0 -- -- 100
2019-11-01 03:00:00 9.7 0 Calma 3 Este 0 -- -- 100
2019-11-01 02:00:00 9.8 0 Calma 5 Nordeste 0 -- -- 100
2019-11-01 01:00:00 10.1 0 Calma 5 Este 0 -- -- 100
2019-11-01 00:00:00 10.9 0 Calma 4 Este 0 -- -- 100
2019-10-31 23:00:00 12 2 Nordeste 5 Sudoeste 0 -- -- 100
2019-10-31 22:00:00 12.1 2 Nordeste 6 Oeste 0 -- -- 99
2019-10-31 21:00:00 13.3 2 Sudeste 5 Este 0 -- -- 98
2019-10-31 20:00:00 14.7 2 Este 4 Sudoeste 0 -- -- 98
2019-10-31 19:00:00 15.4 0 Calma 4 Oeste 0 -- -- 97
2019-10-31 18:00:00 16.6 0 Calma 3 Oeste 0 -- -- 95
2019-10-31 17:00:00 17.3 2 Oeste 6 Oeste 0 -- -- 93
2019-10-31 16:00:00 18.1 0 Calma 7 Oeste 0 -- -- 90
2019-10-31 15:00:00 18.7 3 Oeste 5 Oeste 0 -- -- 88
2019-10-31 14:00:00 17 0 Calma 4 Nordeste 1.8 -- -- 95
2019-10-31 13:00:00 17 0 Calma 6 Oeste 0.8 -- -- 93
2019-10-31 12:00:00 17.8 0 Calma 3 Sudeste 0 -- -- 87
2019-10-31 11:00:00 16.7 0 Calma 4 Oeste 0 -- -- 98
2019-10-31 10:00:00 14.8 0 Calma 3 Nordeste 0 -- -- 100
2019-10-31 09:00:00 12.5 0 Calma 4 Nordeste 0 -- -- 100
2019-10-31 08:00:00 11.1 0 Calma 4 Nordeste 0 -- -- 100
2019-10-31 07:00:00 11.5 0 Calma 4 Este 0 -- -- 100
2019-10-31 06:00:00 11.7 0 Calma 4 Este 0 -- -- 100
2019-10-31 05:00:00 11.3 2 Nordeste 4 Este 0 -- -- 100
2019-10-31 04:00:00 10.9 2 Nordeste 4 Nordeste 0 -- -- 100
2019-10-31 03:00:00 10.7 0 Calma 3 Este 0 -- -- 99
2019-10-31 02:00:00 10.6 0 Calma 3 Nordeste 0 -- -- 99
2019-10-31 01:00:00 10.8 0 Calma 4 Este 0 -- -- 99
2019-10-31 00:00:00 11.3 0 Calma 3 Nordeste 0 -- -- 98
2019-10-30 23:00:00 11.3 0 Calma 3 Nordeste 0 -- -- 98
2019-10-30 22:00:00 11.8 2 Nordeste 3 Nordeste 0 -- -- 97
2019-10-30 21:00:00 12.5 0 Calma 4 Este 0 -- -- 96
2019-10-30 20:00:00 13.3 0 Calma 5 Oeste 0 -- -- 94
2019-10-30 19:00:00 14.4 2 Este 5 Oeste 0 -- -- 91
2019-10-30 18:00:00 16.3 0 Calma 5 Este 0 -- -- 86
2019-10-30 17:00:00 19.1 0 Calma 17 Sudoeste 0 -- -- 78
2019-10-30 16:00:00 22.8 3 Norte 9 Sudeste 0 -- -- 59
2019-10-30 15:00:00 23.2 3 Este 24 Oeste 0 -- -- 54
2019-10-30 14:00:00 22.7 10 Oeste 31 Oeste 0 -- -- 54
2019-10-30 13:00:00 22.2 6 Noroeste 23 Noroeste 0 -- -- 55
2019-10-30 12:00:00 19 3 Este 8 Sudeste 0 -- -- 85
2019-10-30 11:00:00 15.5 0 Calma 4 Nordeste 0 -- -- 100
2019-10-30 10:00:00 13 0 Calma 6 Este 0 -- -- 100
2019-10-30 09:00:00 9.3 3 Este 6 Este 0 -- -- 100
2019-10-30 08:00:00 7.3 0 Calma 3 Este 0 -- -- 100
2019-10-30 07:00:00 7 0 Calma 3 Nordeste 0 -- -- 100
2019-10-30 06:00:00 7.4 0 Calma 3 Este 0 -- -- 100
2019-10-30 05:00:00 7.7 0 Calma 3 Nordeste 0 -- -- 100
2019-10-30 04:00:00 7.8 2 Nordeste 3 Nordeste 0 -- -- 100
2019-10-30 03:00:00 8.1 0 Calma 3 Este 0 -- -- 99
2019-10-30 02:00:00 8.4 0 Calma 2 Nordeste 0 -- -- 99
2019-10-30 01:00:00 8.8 0 Calma 3 Nordeste 0 -- -- 99
2019-10-30 00:00:00 9.3 0 Calma 3 Este 0 -- -- 99
2019-10-29 23:00:00 9.9 0 Calma 5 Este 0 -- -- 98
2019-10-29 22:00:00 10.6 2 Nordeste 4 Sudeste 0 -- -- 97
2019-10-29 21:00:00 11.2 0 Calma 5 Este 0 -- -- 96
2019-10-29 20:00:00 12.1 0 Calma 5 Norte 0 -- -- 95
2019-10-29 19:00:00 13.5 0 Calma 3 Nordeste 0 -- -- 93
2019-10-29 18:00:00 15.8 0 Calma 2 Este 0 -- -- 89
2019-10-29 17:00:00 18.6 0 Calma 4 Sudoeste 0 -- -- 83
2019-10-29 16:00:00 21.4 0 Calma 6 Sudeste 0 -- -- 68
2019-10-29 15:00:00 20.7 3 Sudoeste 9 Oeste 0 -- -- 72
2019-10-29 14:00:00 20.6 3 Oeste 9 Sudoeste 0 -- -- 69
2019-10-29 13:00:00 20.2 2 Sudoeste 7 Sudoeste 0 -- -- 72
2019-10-29 12:00:00 18.2 3 Oeste 7 Oeste 0 -- -- 84
2019-10-29 11:00:00 14.8 0 Calma 4 Oeste 0 -- -- 100
2019-10-29 10:00:00 12.2 0 Calma 3 Este 0 -- -- 100
2019-10-29 09:00:00 9.5 0 Calma 3 Nordeste 0 -- -- 100
2019-10-29 08:00:00 7.2 0 Calma 3 Este 0 -- -- 100
2019-10-29 07:00:00 7.2 0 Calma 4 Nordeste 0 -- -- 100
2019-10-29 06:00:00 7.9 0 Calma 5 Nordeste 0 -- -- 99
2019-10-29 05:00:00 8.3 2 Nordeste 3 Nordeste 0 -- -- 99
2019-10-29 04:00:00 9.3 0 Calma 4 Este 0 -- -- 99
2019-10-29 03:00:00 10.3 0 Calma 3 Este 0 -- -- 98
2019-10-29 02:00:00 11.5 0 Calma 3 Nordeste 0 -- -- 99
2019-10-29 01:00:00 12.2 0 Calma 5 Nordeste 0 -- -- 99
2019-10-29 00:00:00 12.2 0 Calma 3 Nordeste 0 -- -- 99
2019-10-28 23:00:00 12.3 0 Calma 4 Este 0 -- -- 98
2019-10-28 22:00:00 13.1 2 Nordeste 4 Este 0 -- -- 97
2019-10-28 21:00:00 14.1 0 Calma 12 Noroeste 0 -- -- 96
2019-10-28 20:00:00 14.5 0 Calma 5 Oeste 0 -- -- 96
2019-10-28 19:00:00 14.9 0 Calma 4 Este 0 -- -- 95
2019-10-28 18:00:00 16 0 Calma 3 Este 0 -- -- 92
2019-10-28 17:00:00 17.5 0 Calma 4 Sudoeste 0 -- -- 88
2019-10-28 16:00:00 18.8 0 Calma 6 Oeste 0 -- -- 77
2019-10-28 15:00:00 18.8 3 Oeste 5 Sudoeste 0 -- -- 79
2019-10-28 14:00:00 18.8 0 Calma 5 Sudoeste 0 -- -- 76
2019-10-28 13:00:00 18.8 3 Oeste 6 Oeste 0 -- -- 75
2019-10-28 12:00:00 16.9 3 Sur 8 Sudeste 0 -- -- 84
2019-10-28 11:00:00 15.4 0 Calma 4 Norte 0 -- -- 99
2019-10-28 10:00:00 14.3 0 Calma 3 Este 0 -- -- 100
2019-10-28 09:00:00 11.5 0 Calma 4 Este 0 -- -- 100
2019-10-28 08:00:00 10 0 Calma 5 Nordeste 0 -- -- 100
2019-10-28 07:00:00 9.6 3 Nordeste 5 Nordeste 0 -- -- 100
2019-10-28 06:00:00 9.3 0 Calma 7 Este 0 -- -- 100
2019-10-28 05:00:00 9 3 Sur 10 Norte 0 -- -- 100
2019-10-28 04:00:00 8.7 2 Este 6 Oeste 0 -- -- 100
2019-10-28 03:00:00 8.8 0 Calma 8 Oeste 0 -- -- 99
2019-10-28 02:00:00 9.4 2 Este 8 Este 0 -- -- 99
2019-10-28 01:00:00 9.8 3 Este 7 Norte 0 -- -- 99
2019-10-28 00:00:00 10.2 0 Calma 7 Noroeste 0 -- -- 98
2019-10-27 23:00:00 10.9 0 Calma 5 Este 0 -- -- 98
2019-10-27 22:00:00 11.7 0 Calma 3 Nordeste 0 -- -- 96
2019-10-27 21:00:00 13.1 0 Calma 4 Este 0 -- -- 96
2019-10-27 20:00:00 14.5 0 Calma 3 Este 0 -- -- 94
2019-10-27 19:00:00 15.4 0 Calma 2 Este 0 -- -- 93
2019-10-27 18:00:00 16.8 0 Calma 4 Noroeste 0 -- -- 88
2019-10-27 17:00:00 19.3 0 Calma 11 Sudeste 0 -- -- 80
2019-10-27 16:00:00 22.8 3 Sudoeste 10 Sudeste 0 -- -- 68
2019-10-27 15:00:00 22.9 3 Sur 9 Sudeste 0 -- -- 59
2019-10-27 14:00:00 21.6 3 Sudeste 10 Este 0 -- -- 65
2019-10-27 13:00:00 21 3 Sudoeste 14 Sudeste 0 -- -- 69
2019-10-27 12:00:00 18.8 3 Oeste 9 Sudeste 0 -- -- 78
2019-10-27 11:00:00 14.8 2 Oeste 8 Oeste 0 -- -- 100
2019-10-27 10:00:00 12.1 0 Calma 5 Este 0 -- -- 100
2019-10-27 09:00:00 8.6 0 Calma 3 Este 0 -- -- 100
2019-10-27 08:00:00 6.3 0 Calma 4 Nordeste 0 -- -- 100
2019-10-27 07:00:00 6 0 Calma 3 Nordeste 0 -- -- 100
2019-10-27 06:00:00 6.5 2 Nordeste 4 Nordeste 0 -- -- 100
2019-10-27 05:00:00 6.6 0 Calma 4 Nordeste 0 -- -- 99
2019-10-27 04:00:00 7 0 Calma 4 Nordeste 0 -- -- 100
2019-10-27 03:00:00 7.2 2 Nordeste 3 Nordeste 0 -- -- 99
2019-10-27 02:00:00 7.7 0 Calma 4 Nordeste 0 -- -- 99
2019-10-27 01:00:00 8.7 0 Calma 4 Nordeste 0 -- -- 98
2019-10-27 00:00:00 9.2 0 Calma 3 Nordeste 0 -- -- 97
2019-10-26 23:00:00 9.8 0 Calma 4 Nordeste 0 -- -- 97
2019-10-26 22:00:00 10.6 2 Este 4 Este 0 -- -- 96
2019-10-26 21:00:00 11.6 0 Calma 3 Este 0 -- -- 94
2019-10-26 20:00:00 13.1 0 Calma 2 Este 0 -- -- 91
2019-10-26 19:00:00 15.2 0 Calma 2 Nordeste 0 -- -- 86
2019-10-26 18:00:00 18.3 0 Calma 11 Oeste 0 -- -- 74
2019-10-26 17:00:00 22.2 4 Oeste 10 Este 0 -- -- 57
2019-10-26 16:00:00 22.1 3 Sudeste 13 Este 0 -- -- 58
2019-10-26 15:00:00 22 4 Este 10 Sudeste 0 -- -- 56
2019-10-26 14:00:00 20.9 4 Sudeste 14 Noroeste 0 -- -- 59
2019-10-26 13:00:00 18.6 2 Sudoeste 6 Sudeste 0 -- -- 72
2019-10-26 12:00:00 14.2 0 Calma 3 Noroeste 0 -- -- 100
2019-10-26 11:00:00 11 0 Calma 3 Nordeste 0 -- -- 100
2019-10-26 10:00:00 8 2 Este 3 Nordeste 0 -- -- 100
2019-10-26 09:00:00 5.7 0 Calma 4 Este 0 -- -- 100
2019-10-26 08:00:00 5.3 0 Calma 3 Nordeste 0 -- -- 100
2019-10-26 07:00:00 5.5 0 Calma 4 Nordeste 0 -- -- 100
2019-10-26 06:00:00 5.7 2 Nordeste 4 Este 0 -- -- 100
2019-10-26 05:00:00 6.1 0 Calma 4 Este 0 -- -- 99
2019-10-26 04:00:00 6.4 2 Nordeste 5 Este 0 -- -- 99
2019-10-26 03:00:00 6.8 2 Nordeste 4 Nordeste 0 -- -- 99
2019-10-26 02:00:00 7 0 Calma 4 Nordeste 0 -- -- 98
2019-10-26 01:00:00 7.6 2 Nordeste 5 Nordeste 0 -- -- 98
2019-10-26 00:00:00 8.4 3 Nordeste 6 Este 0 -- -- 98
2019-10-25 23:00:00 9 2 Este 5 Sudeste 0 -- -- 97
2019-10-25 22:00:00 9.6 2 Este 6 Noroeste 0 -- -- 96
2019-10-25 21:00:00 10.4 0 Calma 3 Nordeste 0 -- -- 94
2019-10-25 20:00:00 11.9 0 Calma 3 Este 0 -- -- 91
2019-10-25 19:00:00 14.1 0 Calma 4 Norte 0 -- -- 85
2019-10-25 18:00:00 17.7 0 Calma 8 Sudoeste 0 -- -- 72
2019-10-25 17:00:00 22 0 Calma 6 Oeste 0 -- -- 55
2019-10-25 16:00:00 22.6 0 Calma 15 Noroeste 0 -- -- 46
2019-10-25 15:00:00 22.1 5 Noroeste 13 Noroeste 0 -- -- 41
2019-10-25 14:00:00 19.8 0 Calma 7 Oeste 0 -- -- 59
2019-10-25 13:00:00 16.8 3 Este 6 Este 0 -- -- 73
2019-10-25 12:00:00 13.1 0 Calma 4 Nordeste 0 -- -- 100
2019-10-25 11:00:00 11 0 Calma 4 Este 0 -- -- 100
2019-10-25 10:00:00 7.9 0 Calma 6 Este 0 -- -- 100
2019-10-25 09:00:00 5.7 0 Calma 5 Nordeste 0 -- -- 100
2019-10-25 08:00:00 5.8 2 Nordeste 4 Este 0 -- -- 100
2019-10-25 07:00:00 6.2 3 Nordeste 7 Nordeste 0 -- -- 100
2019-10-25 06:00:00 6.5 2 Nordeste 4 Sudeste 0 -- -- 100
2019-10-25 05:00:00 7.4 2 Este 4 Este 0 -- -- 100
2019-10-25 04:00:00 7.6 0 Calma 6 Este 0 -- -- 99
2019-10-25 03:00:00 8 0 Calma 4 Nordeste 0 -- -- 100
2019-10-25 02:00:00 8.6 0 Calma 4 Este 0 -- -- 99
2019-10-25 01:00:00 8.8 2 Nordeste 5 Este 0 -- -- 98
2019-10-25 00:00:00 9.5 0 Calma 5 Este 0 -- -- 98
2019-10-24 23:00:00 10.2 0 Calma 4 Este 0 -- -- 97
2019-10-24 22:00:00 11.1 0 Calma 4 Este 0 -- -- 96
2019-10-24 21:00:00 11.7 0 Calma 3 Este 0 -- -- 95
2019-10-24 20:00:00 12.3 2 Este 3 Nordeste 0 -- -- 91
2019-10-24 19:00:00 14.4 0 Calma 8 Oeste 0 -- -- 84
2019-10-24 18:00:00 16.7 0 Calma 8 Sudeste 0 -- -- 72
2019-10-24 17:00:00 17.2 2 Sudeste 13 Norte 0 -- -- 67
2019-10-24 16:00:00 19.6 6 Oeste 12 Sudoeste 0 -- -- 54
2019-10-24 15:00:00 19.3 6 Noroeste 15 Noroeste 0 -- -- 50
2019-10-24 14:00:00 18.5 6 Noroeste 21 Noroeste 0 -- -- 51
2019-10-24 13:00:00 16.5 4 Oeste 14 Norte 0 -- -- 65
2019-10-24 12:00:00 12.7 0 Calma 5 Sudeste 0 -- -- 100
2019-10-24 11:00:00 10.8 0 Calma 3 Nordeste 0 -- -- 100
2019-10-24 10:00:00 8.4 0 Calma 4 Este 0 -- -- 100
2019-10-24 09:00:00 6.4 2 Este 5 Este 0 -- -- 100
2019-10-24 08:00:00 6.4 0 Calma 5 Este 0 -- -- 100
2019-10-24 07:00:00 6.9 0 Calma 6 Noroeste 0 -- -- 100
2019-10-24 06:00:00 7.2 0 Calma 5 Sudeste 0 -- -- 100
2019-10-24 05:00:00 7.6 0 Calma 5 Oeste 0 -- -- 99
2019-10-24 04:00:00 8.5 0 Calma 9 Noroeste 0 -- -- 98
2019-10-24 03:00:00 9.2 3 Nordeste 8 Nordeste 0 -- -- 98
2019-10-24 02:00:00 9.9 3 Este 6 Este 0 -- -- 96
2019-10-24 01:00:00 11.4 3 Sudeste 24 Noroeste 0 -- -- 92
2019-10-24 00:00:00 13.1 5 Sur 21 Noroeste 0 -- -- 82
2019-10-23 23:00:00 12.1 3 Sudeste 21 Sudoeste 0 -- -- 90
2019-10-23 22:00:00 11.2 7 Sudoeste 21 Sudoeste 0 -- -- 100
2019-10-23 21:00:00 10.9 3 Nordeste 8 Este 0 -- -- 98
2019-10-23 20:00:00 12.4 2 Noroeste 6 Este 0 -- -- 96
2019-10-23 19:00:00 14.2 2 Nordeste 5 Este 0 -- -- 95
2019-10-23 18:00:00 15.4 2 Este 7 Sudeste 0 -- -- 91
2019-10-23 17:00:00 17.1 3 Este 9 Sudeste 0 -- -- 88
2019-10-23 16:00:00 17.1 2 Sur 9 Este 0.2 -- -- 89
2019-10-23 15:00:00 16.8 2 Sur 8 Sudeste 0 -- -- 94
2019-10-23 14:00:00 15.9 2 Sudeste 8 Este 0 -- -- 100
2019-10-23 13:00:00 15.4 3 Sudoeste 9 Oeste 0.4 -- -- 100
2019-10-23 12:00:00 14.2 4 Sudeste 9 Este 0 -- -- 100
2019-10-23 11:00:00 14.2 3 Oeste 8 Oeste 0.2 -- -- 100
2019-10-23 10:00:00 14.2 0 Calma 9 Oeste 0.6 -- -- 100
2019-10-23 09:00:00 14.2 3 Este 5 Este 0.6 -- -- 100
2019-10-23 08:00:00 14.2 3 Noroeste 9 Oeste 2 -- -- 100
2019-10-23 07:00:00 14.1 2 Sudeste 9 Sudoeste 0.6 -- -- 100
2019-10-23 06:00:00 14.2 3 Oeste 6 Oeste 2 -- -- 100
2019-10-23 05:00:00 14.3 6 Oeste 13 Nordeste 0.8 -- -- 100
2019-10-23 04:00:00 14.2 5 Noroeste 13 Oeste 2.8 -- -- 100
2019-10-23 03:00:00 14.4 3 Noroeste 27 Oeste 12.8 -- -- 99
2019-10-23 02:00:00 17.9 4 Sudeste 13 Este 3.2 -- -- 100
2019-10-23 01:00:00 18 4 Nordeste 33 Este 10.6 -- -- 100
2019-10-23 00:00:00 17.7 6 Sudeste 24 Este 1.6 -- -- 100
2019-10-22 23:00:00 15.6 0 Calma 3 Sudoeste 2 -- -- 100
2019-10-22 22:00:00 15.3 0 Calma 16 Oeste 0.2 -- -- 100
2019-10-22 21:00:00 14.8 3 Este 8 Noroeste 6.6 -- -- 100
2019-10-22 20:00:00 14.7 2 Nordeste 5 Este 0.8 -- -- 100
2019-10-22 19:00:00 14.6 3 Este 9 Norte 2 -- -- 99
2019-10-22 18:00:00 14.6 4 Nordeste 7 Noroeste 0.6 -- -- 99
2019-10-22 17:00:00 14.5 2 Nordeste 9 Oeste 3 -- -- 99
2019-10-22 16:00:00 14.8 2 Este 9 Oeste 6.8 -- -- 97
2019-10-22 15:00:00 15.3 2 Oeste 12 Noroeste 5.4 -- -- 94
2019-10-22 14:00:00 16.8 5 Noroeste 15 Noroeste 0 -- -- 84
2019-10-22 13:00:00 16.3 5 Noroeste 22 Noroeste 0 -- -- 86
2019-10-22 12:00:00 15.1 5 Noroeste 18 Noroeste 0 -- -- 96
2019-10-22 11:00:00 13.8 4 Noroeste 14 Oeste 0 -- -- 100
2019-10-22 10:00:00 12.6 3 Sur 7 Oeste 0.4 -- -- 100
2019-10-22 09:00:00 12.2 2 Nordeste 5 Nordeste 3 -- -- 100
2019-10-22 08:00:00 11.9 2 Este 10 Norte 2.2 -- -- 100
2019-10-22 07:00:00 12.1 3 Nordeste 11 Norte 0 -- -- 100
2019-10-22 06:00:00 11.9 2 Este 3 Este 0.6 -- -- 100
2019-10-22 05:00:00 11.8 0 Calma 3 Este 0 -- -- 100
2019-10-22 04:00:00 11.6 0 Calma 3 Nordeste 0 -- -- 100
2019-10-22 03:00:00 11.4 0 Calma 3 Este 0 -- -- 100
2019-10-22 02:00:00 11.1 0 Calma 3 Nordeste 0 -- -- 100
2019-10-22 01:00:00 11 0 Calma 4 Este 0 -- -- 100
2019-10-22 00:00:00 11.2 0 Calma 3 Noroeste 0 -- -- 99
2019-10-21 23:00:00 11.4 0 Calma 3 Este 0 -- -- 99
2019-10-21 22:00:00 11.7 0 Calma 3 Este 0 -- -- 99
2019-10-21 21:00:00 11.9 0 Calma 2 Norte 0 -- -- 98
2019-10-21 20:00:00 12.5 0 Calma 3 Oeste 0 -- -- 98
2019-10-21 19:00:00 12.8 0 Calma 3 Norte 0 -- -- 96
2019-10-21 18:00:00 13.4 0 Calma 8 Oeste 0 -- -- 95
2019-10-21 17:00:00 13.7 3 Oeste 9 Oeste 0 -- -- 92
2019-10-21 16:00:00 14.4 0 Calma 6 Este 0.2 -- -- 90
2019-10-21 15:00:00 13.7 2 Este 9 Noroeste 1 -- -- 95
2019-10-21 14:00:00 13.6 4 Sudeste 11 Sudeste 0.2 -- -- 91
2019-10-21 13:00:00 14.1 0 Calma 8 Sudeste 0 -- -- 88
2019-10-21 12:00:00 13.7 0 Calma 6 Oeste 0 -- -- 94
2019-10-21 11:00:00 12.6 2 Sudoeste 4 Nordeste 0 -- -- 99
2019-10-21 10:00:00 10.5 3 Este 6 Oeste 0 -- -- 100
2019-10-21 09:00:00 8.8 2 Este 5 Este 0 -- -- 99
2019-10-21 08:00:00 8.1 0 Calma 4 Este 0 -- -- 98
2019-10-21 07:00:00 8.2 0 Calma 3 Nordeste 0 -- -- 98
2019-10-21 06:00:00 9 2 Nordeste 5 Este 0 -- -- 98
2019-10-21 05:00:00 9.4 3 Este 5 Este 0 -- -- 96
2019-10-21 04:00:00 10.5 0 Calma 5 Este -- -- -- 96
2019-10-21 03:00:00 11.7 0 Calma 4 Este 0 -- -- 95
2019-10-21 02:00:00 12.3 2 Este 6 Este 0 -- -- 92
2019-10-21 01:00:00 13.1 4 Este 14 Sudoeste 0 -- -- 90
2019-10-21 00:00:00 14.8 3 Este 17 Sudeste 0 -- -- 82
2019-10-20 23:00:00 14.9 4 Sudeste 15 Este 0 -- -- 82
2019-10-20 22:00:00 13.7 3 Sudeste 16 Sudeste 0 -- -- 85
2019-10-20 21:00:00 13.4 3 Sudeste 7 Sudoeste 0 -- -- 90
2019-10-20 20:00:00 13.1 3 Este 6 Este 0 -- -- 90
2019-10-20 19:00:00 15 2 Este 9 Norte 0 -- -- 82
2019-10-20 18:00:00 17.1 2 Este 17 Norte 0 -- -- 70
2019-10-20 17:00:00 18.3 5 Norte 23 Norte 0 -- -- 63
2019-10-20 16:00:00 17.7 9 Norte 37 Noroeste 0 -- -- 69
2019-10-20 15:00:00 19.2 6 Noroeste 25 Noroeste 0.2 -- -- 70
2019-10-20 14:00:00 20.1 10 Noroeste 31 Noroeste 0 -- -- 62
2019-10-20 13:00:00 20.8 7 Noroeste 26 Oeste 0.2 -- -- 72
2019-10-20 12:00:00 19.4 2 Sudeste 14 Oeste 0 -- -- 98
2019-10-20 11:00:00 17.4 5 Sudeste 15 Sudeste 0.8 -- -- 100
2019-10-20 10:00:00 15.6 0 Calma 12 Noroeste 0 -- -- 100
2019-10-20 09:00:00 13.2 2 Este 5 Este 0.2 -- -- 99
2019-10-20 08:00:00 12.9 3 Nordeste 5 Este 2 -- -- 99
2019-10-20 07:00:00 12.1 0 Calma 4 Este 0 -- -- 97
2019-10-20 06:00:00 12 2 Nordeste 4 Noroeste 0 -- -- 96
2019-10-20 05:00:00 12.4 0 Calma 4 Este 0 -- -- 94
2019-10-20 04:00:00 13.7 2 Este 10 Oeste 0 -- -- 91
2019-10-20 03:00:00 16.1 2 Nordeste 14 Oeste 0 -- -- 83
2019-10-20 02:00:00 16.6 7 Sudoeste 21 Sudoeste 0 -- -- 84
2019-10-20 01:00:00 15.8 4 Sudoeste 15 Oeste 0 -- -- 82
2019-10-20 00:00:00 18.9 9 Oeste 27 Sudoeste 0 -- -- 73
2019-10-19 23:00:00 15.5 3 Sur 20 Noroeste 0 -- -- 85
2019-10-19 22:00:00 15 4 Este 16 Norte 0 -- -- 89
2019-10-19 21:00:00 15 2 Nordeste 5 Este 0 -- -- 89
2019-10-19 20:00:00 17.5 3 Nordeste 12 Este 0 -- -- 82
2019-10-19 19:00:00 19.9 4 Sudeste 16 Este 0 -- -- 72
2019-10-19 18:00:00 22.7 3 Sudeste 17 Sur 0 -- -- 56
2019-10-19 17:00:00 25.2 5 Sudoeste 16 Oeste 0 -- -- 47
2019-10-19 16:00:00 24.7 4 Sudeste 24 Este 0 -- -- 50
2019-10-19 15:00:00 24.2 5 Sudeste 24 Oeste 0 -- -- 50
2019-10-19 14:00:00 23.6 9 Oeste 25 Oeste 0 -- -- 48
2019-10-19 13:00:00 22.8 11 Oeste 36 Oeste 0 -- -- 51
2019-10-19 12:00:00 21.2 4 Sur 15 Este 0 -- -- 60
2019-10-19 11:00:00 18.3 4 Este 13 Este 0 -- -- 80
2019-10-19 10:00:00 13.4 2 Nordeste 6 Este 0 -- -- 100
2019-10-19 09:00:00 10.7 2 Este 6 Este 0 -- -- 99
2019-10-19 08:00:00 10.7 3 Este 8 Noroeste 0 -- -- 98
2019-10-19 07:00:00 11.4 3 Este 7 Este 0 -- -- 97
2019-10-19 06:00:00 12.6 3 Nordeste 9 Oeste 0 -- -- 97
2019-10-19 05:00:00 12.5 4 Sur 13 Este 0 -- -- 98
2019-10-19 04:00:00 12.8 5 Este 19 Este 0 -- -- 97
2019-10-19 03:00:00 13.3 3 Este 6 Este 0 -- -- 97
2019-10-19 02:00:00 13 2 Este 7 Sudeste 0 -- -- 97
2019-10-19 01:00:00 13.1 0 Calma 13 Este 0 -- -- 96
2019-10-19 00:00:00 13.2 4 Este 8 Nordeste 0 -- -- 96
2019-10-18 23:00:00 13.3 0 Calma 4 Este 0 -- -- 94
2019-10-18 22:00:00 13.9 0 Calma 4 Este 0 -- -- 92
2019-10-18 21:00:00 14.5 0 Calma 4 Este 0 -- -- 90
2019-10-18 20:00:00 15.7 0 Calma 4 Este 0 -- -- 86
2019-10-18 19:00:00 18.3 0 Calma 6 Noroeste 0 -- -- 76
2019-10-18 18:00:00 21.1 0 Calma 7 Nordeste 0 -- -- 65
2019-10-18 17:00:00 23.3 3 Sudoeste 10 Oeste 0 -- -- 54
2019-10-18 16:00:00 23 7 Oeste 22 Oeste 0 -- -- 51
2019-10-18 15:00:00 22.6 2 Sur 10 Sudeste 0 -- -- 56
2019-10-18 14:00:00 19.5 0 Calma 5 Nordeste 0 -- -- 71
2019-10-18 13:00:00 18.1 0 Calma 6 Oeste 0 -- -- 77
2019-10-18 12:00:00 15.9 2 Oeste 6 Este 0 -- -- 86
2019-10-18 11:00:00 14.2 2 Noroeste 8 Oeste 0 -- -- 89
2019-10-18 10:00:00 11.9 0 Calma 15 Oeste 0 -- -- 95
2019-10-18 09:00:00 9.5 3 Sudeste 9 Norte 0 -- -- 98
2019-10-18 08:00:00 8.4 2 Sudeste 8 Noroeste 0 -- -- 98
2019-10-18 07:00:00 7.3 4 Este 8 Norte 0 -- -- 98
2019-10-18 06:00:00 7.1 4 Este 11 Norte 0 -- -- 98
2019-10-18 05:00:00 6.9 4 Nordeste 7 Este 0 -- -- 97
2019-10-18 04:00:00 7.2 3 Este 6 Este 0 -- -- 96
2019-10-18 03:00:00 7.7 2 Este 6 Este 0 -- -- 95
2019-10-18 02:00:00 8.4 2 Nordeste 4 Nordeste 0 -- -- 93
2019-10-18 01:00:00 9.4 0 Calma 5 Nordeste 0 -- -- 92
2019-10-18 00:00:00 10.4 0 Calma 4 Nordeste 0 -- -- 89
2019-10-17 23:00:00 12.1 3 Este 6 Sudeste 0 -- -- 85
2019-10-17 22:00:00 13.4 3 Nordeste 6 Este 0 -- -- 80
2019-10-17 21:00:00 15.3 0 Calma 8 Este 0 -- -- 71
2019-10-17 20:00:00 17.4 2 Nordeste 9 Norte 0 -- -- 58
2019-10-17 19:00:00 20.4 4 Sur 16 Sudoeste 0 -- -- 45
2019-10-17 18:00:00 22.9 5 Noroeste 31 Noroeste 0 -- -- 33
2019-10-17 17:00:00 24.7 7 Oeste 34 Oeste 0 -- -- 32
2019-10-17 16:00:00 25 5 Sudeste 33 Oeste 0 -- -- 31
2019-10-17 15:00:00 24.4 5 Oeste 22 Oeste 0 -- -- 32
2019-10-17 14:00:00 23.1 5 Sudoeste 19 Oeste 0 -- -- 37
2019-10-17 13:00:00 21.7 3 Sur 24 Oeste 0 -- -- 41
2019-10-17 12:00:00 19.2 8 Oeste 25 Oeste 0 -- -- 50
2019-10-17 11:00:00 12.4 2 Este 6 Nordeste 0 -- -- 96
2019-10-17 10:00:00 8.7 0 Calma 5 Este 0 -- -- 100
2019-10-17 09:00:00 6.2 2 Nordeste 10 Oeste 0 -- -- 99
2019-10-17 08:00:00 5.8 2 Este 9 Noroeste 0 -- -- 98
2019-10-17 07:00:00 6.2 2 Este 10 Noroeste 0 -- -- 98
2019-10-17 06:00:00 6.2 3 Este 7 Noroeste 0 -- -- 98
2019-10-17 05:00:00 6.1 0 Calma 5 Este 0 -- -- 97
2019-10-17 04:00:00 6.4 2 Nordeste 6 Nordeste 0 -- -- 97
2019-10-17 03:00:00 6.8 3 Nordeste 6 Este 0 -- -- 96
2019-10-17 02:00:00 7 0 Calma 5 Este 0 -- -- 95
2019-10-17 01:00:00 7.5 0 Calma 5 Nordeste 0 -- -- 94
2019-10-17 00:00:00 8 2 Nordeste 5 Este 0 -- -- 92
2019-10-16 23:00:00 8.7 2 Nordeste 4 Este 0 -- -- 90
2019-10-16 22:00:00 9.8 0 Calma 6 Noroeste 0 -- -- 87
2019-10-16 21:00:00 11.3 0 Calma 4 Este 0 -- -- 81
2019-10-16 20:00:00 13.6 0 Calma 12 Este 0 -- -- 72
2019-10-16 19:00:00 17.9 4 Nordeste 23 Noroeste 0 -- -- 56
2019-10-16 18:00:00 20.3 10 Oeste 32 Sudoeste 0 -- -- 41
2019-10-16 17:00:00 21.7 11 Oeste 32 Oeste 0 -- -- 38
2019-10-16 16:00:00 21.9 18 Oeste 41 Oeste 0 -- -- 36
2019-10-16 15:00:00 21.7 10 Noroeste 30 Noroeste 0 -- -- 39
2019-10-16 14:00:00 20.4 5 Este 21 Noroeste 0 -- -- 42
2019-10-16 13:00:00 19.1 5 Norte 22 Norte 0 -- -- 45
2019-10-16 12:00:00 16.7 6 Norte 18 Noroeste 0 -- -- 52
2019-10-16 11:00:00 15.1 5 Noroeste 21 Norte 0 -- -- 55
2019-10-16 10:00:00 12.9 8 Oeste 22 Oeste 0 -- -- 67
2019-10-16 09:00:00 7.1 3 Este 6 Este 0 -- -- 100
2019-10-16 08:00:00 5.3 3 Este 6 Este 0 -- -- 100
2019-10-16 07:00:00 5 2 Este 5 Nordeste 0 -- -- 99
2019-10-16 06:00:00 5.5 0 Calma 7 Nordeste 0 -- -- 99
2019-10-16 05:00:00 5.7 0 Calma 8 Este 0 -- -- 99
2019-10-16 04:00:00 6 0 Calma 6 Este 0 -- -- 98
2019-10-16 03:00:00 6.7 0 Calma 7 Este 0 -- -- 98
2019-10-16 02:00:00 6.8 2 Nordeste 5 Este 0 -- -- 97
2019-10-16 01:00:00 7.5 0 Calma 4 Este 0 -- -- 96
2019-10-16 00:00:00 8.4 3 Nordeste 5 Nordeste 0 -- -- 95
2019-10-15 23:00:00 9.1 2 Este 4 Nordeste 0 -- -- 94
2019-10-15 22:00:00 10.3 2 Este 4 Este 0 -- -- 92
2019-10-15 21:00:00 11.1 0 Calma 3 Este 0 -- -- 90
2019-10-15 20:00:00 12.4 0 Calma 3 Este 0 -- -- 84
2019-10-15 19:00:00 15.1 0 Calma 12 Sudeste 0 -- -- 76
2019-10-15 18:00:00 17.6 3 Nordeste 11 Este 0 -- -- 65
2019-10-15 17:00:00 20.1 4 Sur 12 Nordeste 0 -- -- 56
2019-10-15 16:00:00 20.9 7 Oeste 17 Oeste 0 -- -- 48
2019-10-15 15:00:00 20.1 9 Oeste 19 Oeste 0 -- -- 51
2019-10-15 14:00:00 19 3 Sudoeste 12 Nordeste 0 -- -- 53
2019-10-15 13:00:00 18.1 3 Oeste 17 Oeste 0 -- -- 61
2019-10-15 12:00:00 16.1 5 Oeste 18 Oeste 0 -- -- 66
2019-10-15 11:00:00 13.8 4 Sudeste 14 Oeste 0 -- -- 80
2019-10-15 10:00:00 10.4 0 Calma 4 Este 0 -- -- 96
2019-10-15 09:00:00 9.4 2 Este 10 Este 0 -- -- 95
2019-10-15 08:00:00 10.5 0 Calma 5 Este 0 -- -- 91
2019-10-15 07:00:00 13 3 Sudeste 40 Oeste 0 -- -- 82
2019-10-15 06:00:00 14.2 18 Oeste 39 Oeste 0 -- -- 77
2019-10-15 05:00:00 15.1 9 Noroeste 21 Oeste 0 -- -- 84
2019-10-15 04:00:00 13.7 2 Sudoeste 10 Sudoeste 0 -- -- 98
2019-10-15 03:00:00 14.4 3 Sudeste 14 Este 0.2 -- -- 98
2019-10-15 02:00:00 14.2 3 Nordeste 16 Noroeste 0 -- -- 96
2019-10-15 01:00:00 15.5 3 Oeste 13 Este 0.2 -- -- 96
2019-10-15 00:00:00 15.6 6 Norte 19 Norte 0 -- -- 100
2019-10-14 23:00:00 14.9 4 Noroeste 12 Noroeste 0 -- -- 98
2019-10-14 22:00:00 16 0 Calma 5 Oeste 0 -- -- 96
2019-10-14 21:00:00 17.8 3 Sudoeste 6 Oeste 0 -- -- 96
2019-10-14 20:00:00 19.2 4 Sudoeste 10 Sudoeste 0.6 -- -- 95
2019-10-14 19:00:00 20.4 3 Este 9 Sudeste 0 -- -- 87
2019-10-14 18:00:00 21.7 3 Sudeste 12 Este 0 -- -- 81
2019-10-14 17:00:00 23.5 3 Sudeste 13 Sudoeste 0 -- -- 69
2019-10-14 16:00:00 24 3 Este 12 Oeste 0 -- -- 67
2019-10-14 15:00:00 24.1 4 Oeste 14 Oeste 0 -- -- 67
2019-10-14 14:00:00 23.3 3 Sur 12 Sudoeste 0 -- -- 68
2019-10-14 13:00:00 22.3 3 Sur 8 Oeste 0 -- -- 68
2019-10-14 12:00:00 20.2 2 Oeste 6 Sudoeste 0 -- -- 78
2019-10-14 11:00:00 18.7 4 Noroeste 11 Noroeste 0 -- -- 85
2019-10-14 10:00:00 15.8 0 Calma 5 Noroeste 0 -- -- 99
2019-10-14 09:00:00 14.4 0 Calma 5 Noroeste 0 -- -- 99
2019-10-14 08:00:00 13.6 0 Calma 8 Noroeste 0 -- -- 98
2019-10-14 07:00:00 14.1 0 Calma 3 Nordeste 0 -- -- 98
2019-10-14 06:00:00 15.3 0 Calma 5 Norte 0 -- -- 97
2019-10-14 05:00:00 16.1 2 Oeste 8 Noroeste 0 -- -- 98
2019-10-14 04:00:00 15.5 0 Calma 3 Este 0 -- -- 98
2019-10-14 03:00:00 15.7 0 Calma 3 Este 0 -- -- 98
2019-10-14 02:00:00 16.2 0 Calma 2 Este 0 -- -- 96
2019-10-14 01:00:00 17.3 0 Calma 2 Este 0 -- -- 96
2019-10-14 00:00:00 18.2 0 Calma 3 Oeste 0 -- -- 96